Time;durP1;ratioP1;P1;durP2;ratioP2;P2;SDS_P1;SDS_P2;PMS_P1;PMS_P2;Temp;Humidity;BMP_temperature;BMP_pressure;BME280_temperature;BME280_humidity;BME280_pressure;Samples;Min_cycle;Max_cycle;Signal;HPM_P1;HPM_P2
2021/03/22 00:01:36;;;;;;;14.80;8.10;;;;;;;3.03;82.80;98618.63;5049444;28;20047;-38
2021/03/22 00:04:02;;;;;;;14.75;8.57;;;;;;;3.08;81.93;98631.22;5049425;28;20067;-39
2021/03/22 00:06:27;;;;;;;12.68;8.07;;;;;;;2.91;82.36;98641.09;5029175;28;20048;-38
2021/03/22 00:08:54;;;;;;;16.10;9.57;;;;;;;2.80;83.28;98636.28;5028217;28;20056;-39
2021/03/22 00:11:20;;;;;;;17.10;10.10;;;;;;;2.99;83.80;98643.66;5030082;28;20025;-39
2021/03/22 00:13:46;;;;;;;15.40;9.50;;;;;;;3.06;82.43;98631.38;5031353;28;20555;-39
2021/03/22 00:16:13;;;;;;;15.85;9.27;;;;;;;3.07;82.76;98625.16;5030980;28;20030;-38
2021/03/22 00:18:39;;;;;;;16.60;9.20;;;;;;;2.97;82.33;98622.00;5030963;28;20032;-39
2021/03/22 00:21:06;;;;;;;14.30;8.80;;;;;;;3.21;82.34;98617.44;5031062;28;20040;-40
2021/03/22 00:23:31;;;;;;;13.43;7.90;;;;;;;3.16;82.92;98614.53;5031089;28;20048;-39
2021/03/22 00:25:57;;;;;;;14.68;8.65;;;;;;;3.12;83.16;98603.56;5030835;28;20460;-38
2021/03/22 00:28:24;;;;;;;13.52;8.20;;;;;;;3.07;83.21;98585.72;5030856;28;20021;-40
2021/03/22 00:30:49;;;;;;;15.88;9.00;;;;;;;3.06;83.23;98576.19;5030683;28;20025;-39
2021/03/22 00:33:16;;;;;;;15.20;8.88;;;;;;;2.97;83.27;98566.78;5030761;28;20030;-39
2021/03/22 00:35:42;;;;;;;14.23;8.20;;;;;;;3.12;82.48;98562.34;5030728;28;20456;-38
2021/03/22 00:38:07;;;;;;;13.65;8.25;;;;;;;3.25;81.88;98556.38;5030588;28;20037;-39
2021/03/22 00:40:38;;;;;;;15.85;9.55;;;;;;;3.43;82.27;98552.56;5030537;28;20165;-38
2021/03/22 00:43:04;;;;;;;16.73;9.13;;;;;;;3.15;82.21;98541.94;5030610;28;20029;-39
2021/03/22 00:45:29;;;;;;;13.68;8.75;;;;;;;3.03;83.07;98516.13;5030357;28;20055;-39
2021/03/22 00:47:55;;;;;;;14.45;8.68;;;;;;;3.01;83.45;98523.38;5030656;28;20029;-39
2021/03/22 00:50:29;;;;;;;14.45;8.73;;;;;;;3.23;82.58;98513.69;5030561;28;20026;-38
2021/03/22 00:52:55;;;;;;;12.65;8.45;;;;;;;3.30;82.26;98508.53;5030502;28;20025;-39
2021/03/22 00:55:20;;;;;;;13.25;7.90;;;;;;;3.15;82.67;98513.81;5030511;28;20014;-40
2021/03/22 00:57:46;;;;;;;11.65;7.50;;;;;;;3.23;81.51;98516.31;5030534;28;20120;-39
2021/03/22 01:00:21;;;;;;;14.10;8.60;;;;;;;3.23;82.41;98537.34;5030433;28;20044;-39
2021/03/22 01:02:47;;;;;;;12.27;7.25;;;;;;;3.19;82.26;98524.78;5030464;28;20025;-39
2021/03/22 01:05:13;;;;;;;13.48;8.10;;;;;;;3.71;81.59;98518.41;5039942;28;20103;-39
2021/03/22 01:07:38;;;;;;;9.93;6.47;;;;;;;3.46;80.96;98500.38;5050335;28;20477;-39
2021/03/22 01:10:09;;;;;;;9.23;6.45;;;;;;;3.30;83.25;98482.22;5050062;28;20040;-39
2021/03/22 01:12:34;;;;;;;10.48;6.80;;;;;;;3.34;82.35;98488.72;5050601;28;20060;-39
2021/03/22 01:15:00;;;;;;;11.60;7.13;;;;;;;3.50;82.19;98492.91;5050349;28;20021;-39
2021/03/22 01:17:25;;;;;;;9.52;6.05;;;;;;;3.39;82.15;98475.84;5050218;28;20048;-40
2021/03/22 01:19:51;;;;;;;9.70;6.43;;;;;;;3.33;82.39;98476.56;5048783;28;20150;-39
2021/03/22 01:22:16;;;;;;;7.63;5.28;;;;;;;3.21;81.86;98478.06;5049966;28;20025;-39
2021/03/22 01:24:42;;;;;;;10.10;6.05;;;;;;;3.56;81.32;98465.03;5049935;28;20033;-39
2021/03/22 01:27:08;;;;;;;8.85;5.60;;;;;;;3.52;81.29;98460.19;5049946;28;20036;-39
2021/03/22 01:29:35;;;;;;;8.43;5.68;;;;;;;3.47;82.23;98470.44;5050256;28;20480;-39
2021/03/22 01:32:01;;;;;;;8.85;5.70;;;;;;;3.52;81.51;98464.59;5050445;28;20025;-39
2021/03/22 01:34:28;;;;;;;8.13;5.30;;;;;;;3.75;81.53;98459.16;5050211;28;20024;-38
2021/03/22 01:36:54;;;;;;;9.32;6.07;;;;;;;3.72;80.76;98460.31;5049880;28;20515;-38
2021/03/22 01:39:26;;;;;;;9.40;5.95;;;;;;;3.71;81.38;98444.72;5048765;28;20465;-39
2021/03/22 01:42:25;;;;;;;8.95;5.28;;;;;;;3.55;81.73;98445.00;5032409;28;20067;-39
2021/03/22 01:45:00;;;;;;;10.98;5.90;;;;;;;3.70;80.88;98443.13;5035028;28;20036;-40
2021/03/22 01:47:30;;;;;;;10.38;6.57;;;;;;;3.87;80.33;98447.09;5032763;28;20036;-39
2021/03/22 01:50:17;;;;;;;8.70;5.32;;;;;;;3.57;81.39;98438.56;5048490;28;20029;-38
2021/03/22 01:52:43;;;;;;;9.57;6.03;;;;;;;3.60;82.57;98438.19;5031694;28;20155;-39
2021/03/22 01:55:12;;;;;;;9.68;6.55;;;;;;;3.68;81.57;98445.94;5048749;28;20024;-39
2021/03/22 01:57:41;;;;;;;9.23;6.15;;;;;;;3.72;82.21;98443.72;5049702;28;20031;-39
2021/03/22 02:00:28;;;;;;;8.70;5.65;;;;;;;3.69;82.33;98444.09;5049708;28;20029;-39
2021/03/22 02:03:14;;;;;;;8.73;5.78;;;;;;;3.69;81.06;98454.63;5049700;28;20044;-39
2021/03/22 02:05:48;;;;;;;10.88;6.88;;;;;;;3.67;82.02;98436.41;5049265;28;20128;-38
2021/03/22 02:08:34;;;;;;;10.93;7.22;;;;;;;3.89;80.89;98436.38;5049607;28;20032;-38
2021/03/22 02:10:59;;;;;;;10.43;6.80;;;;;;;3.98;80.55;98432.59;5048125;28;20036;-39
2021/03/22 02:13:29;;;;;;;10.77;6.95;;;;;;;3.91;81.81;98429.09;5052174;28;20033;-39
2021/03/22 02:16:28;;;;;;;11.60;7.10;;;;;;;3.81;80.84;98433.84;5035884;28;20028;-40
2021/03/22 02:19:17;;;;;;;12.60;7.10;;;;;;;3.82;81.52;98436.31;5051774;28;20031;-39
2021/03/22 02:22:17;;;;;;;11.52;6.78;;;;;;;3.76;82.06;98431.00;5052038;28;20025;-38
2021/03/22 02:25:04;;;;;;;10.82;7.32;;;;;;;3.98;81.38;98424.69;5051130;28;20041;-40
2021/03/22 02:27:57;;;;;;;8.82;6.25;;;;;;;3.91;79.91;98419.38;5051847;28;20067;-40
2021/03/22 02:30:57;;;;;;;11.82;7.50;;;;;;;3.72;80.92;98417.41;5053196;28;20037;-40
2021/03/22 02:33:57;;;;;;;12.20;7.63;;;;;;;3.99;80.26;98418.41;5030826;28;20141;-40
2021/03/22 02:36:47;;;;;;;10.48;6.97;;;;;;;3.75;80.95;98400.44;5049909;28;20033;-40
2021/03/22 02:39:12;;;;;;;10.93;7.32;;;;;;;3.67;81.14;98396.94;5032059;28;20033;-40
2021/03/22 02:41:42;;;;;;;11.13;6.75;;;;;;;3.78;81.49;98389.53;5032883;28;20021;-40
2021/03/22 02:44:12;;;;;;;12.88;7.25;;;;;;;3.77;80.44;98393.16;5015433;28;20516;-40
2021/03/22 02:46:38;;;;;;;10.02;6.60;;;;;;;3.72;81.84;98389.28;5032653;28;20037;-40
2021/03/22 02:49:09;;;;;;;11.55;7.18;;;;;;;3.69;81.12;98394.09;5033005;28;20109;-41
2021/03/22 02:51:47;;;;;;;10.38;7.15;;;;;;;3.72;81.67;98394.53;5025971;28;20098;-40
2021/03/22 02:54:29;;;;;;;10.20;6.53;;;;;;;3.81;80.94;98403.13;5051414;28;20040;-39
2021/03/22 02:57:04;;;;;;;8.98;6.47;;;;;;;3.73;80.68;98408.50;5051295;28;20021;-40
2021/03/22 02:59:33;;;;;;;10.80;7.25;;;;;;;3.78;81.48;98394.78;5035343;28;20135;-40
2021/03/22 03:02:03;;;;;;;11.38;7.38;;;;;;;3.90;80.46;98411.66;5034956;28;20127;-40
2021/03/22 03:04:30;;;;;;;11.00;7.05;;;;;;;3.92;81.52;98399.94;5051054;28;20081;-41
2021/03/22 03:06:59;;;;;;;9.63;6.32;;;;;;;4.01;81.23;98392.69;5050916;28;20056;-40
2021/03/22 03:09:27;;;;;;;10.65;6.72;;;;;;;4.09;81.31;98391.72;5051156;28;20510;-39
2021/03/22 03:11:52;;;;;;;8.90;6.43;;;;;;;4.06;81.05;98392.13;5052182;28;20040;-39
2021/03/22 03:14:18;;;;;;;11.05;6.53;;;;;;;4.07;80.09;98391.94;5052447;28;20025;-40
2021/03/22 03:16:44;;;;;;;9.82;6.78;;;;;;;3.96;81.09;98399.53;5052274;28;20071;-40
2021/03/22 03:19:09;;;;;;;9.10;6.20;;;;;;;3.84;81.09;98407.97;5052344;28;20424;-41
2021/03/22 03:21:35;;;;;;;7.65;5.50;;;;;;;3.80;81.26;98404.09;5052001;28;20029;-40
2021/03/22 03:24:02;;;;;;;7.00;4.90;;;;;;;3.90;81.35;98401.97;5052113;28;20032;-40
2021/03/22 03:26:27;;;;;;;7.28;5.00;;;;;;;3.94;80.51;98396.28;5051991;28;20461;-41
2021/03/22 03:28:53;;;;;;;7.53;4.93;;;;;;;3.99;81.20;98397.34;5051996;28;20136;-40
2021/03/22 03:31:18;;;;;;;7.30;4.80;;;;;;;3.96;81.66;98396.91;5051719;28;20028;-40
2021/03/22 03:33:44;;;;;;;7.28;5.07;;;;;;;3.98;80.07;98398.38;5052096;28;20036;-40
2021/03/22 03:36:10;;;;;;;19.05;9.90;;;;;;;3.97;80.60;98388.03;5051748;28;20063;-41
2021/03/22 03:38:35;;;;;;;36.47;18.42;;;;;;;4.12;80.64;98386.06;5051827;28;20036;-41
2021/03/22 03:41:01;;;;;;;7.35;5.15;;;;;;;4.06;80.97;98390.31;5051995;28;20028;-40
2021/03/22 03:43:26;;;;;;;47.67;20.13;;;;;;;4.03;81.11;98395.13;5051652;28;20071;-41
2021/03/22 03:45:52;;;;;;;5.97;4.30;;;;;;;4.13;79.80;98389.50;5051161;28;20063;-40
2021/03/22 03:48:20;;;;;;;4.85;3.70;;;;;;;4.10;80.53;98393.38;5050894;28;20029;-40
2021/03/22 03:50:46;;;;;;;6.30;4.30;;;;;;;4.15;80.28;98388.34;5051418;28;20136;-40
2021/03/22 03:53:11;;;;;;;6.57;4.45;;;;;;;3.98;82.21;98387.00;5051635;28;20099;-40
2021/03/22 03:55:37;;;;;;;5.38;3.42;;;;;;;3.62;81.53;98372.22;5051491;28;20090;-41
2021/03/22 03:58:03;;;;;;;4.25;3.15;;;;;;;3.96;80.34;98392.47;5051497;28;20135;-40
2021/03/22 04:00:33;;;;;;;5.78;3.55;;;;;;;3.98;79.21;98387.00;5051186;28;20583;-40
2021/03/22 04:03:12;;;;;;;5.25;3.47;;;;;;;3.89;81.46;98394.25;5051701;28;20082;-41
2021/03/22 04:05:37;;;;;;;8.73;5.32;;;;;;;3.84;81.34;98386.91;5034961;28;20080;-40
2021/03/22 04:08:03;;;;;;;20.00;9.02;;;;;;;3.85;80.52;98388.56;5051384;28;20092;-40
2021/03/22 04:10:28;;;;;;;4.13;2.95;;;;;;;3.94;80.66;98399.75;5051239;28;20493;-41
2021/03/22 04:12:54;;;;;;;4.65;3.10;;;;;;;3.98;80.93;98397.53;5051303;28;20021;-40
2021/03/22 04:15:19;;;;;;;4.40;3.13;;;;;;;4.09;79.90;98399.63;5049490;28;20444;-41
2021/03/22 04:17:45;;;;;;;3.92;2.97;;;;;;;4.05;80.02;98406.28;5049263;28;20033;-41
2021/03/22 04:20:11;;;;;;;5.05;3.22;;;;;;;3.99;80.25;98417.59;5049305;28;20032;-41
2021/03/22 04:22:36;;;;;;;3.58;2.58;;;;;;;3.80;79.71;98412.00;5050189;28;20055;-40
2021/03/22 04:25:03;;;;;;;8.18;5.10;;;;;;;3.70;79.48;98409.72;5050732;28;20036;-40
2021/03/22 04:27:29;;;;;;;13.73;7.47;;;;;;;3.53;79.89;98411.81;5050800;28;20029;-41
2021/03/22 04:29:54;;;;;;;13.65;7.88;;;;;;;3.65;78.75;98424.44;5049633;28;20029;-41
2021/03/22 04:32:20;;;;;;;15.93;7.90;;;;;;;3.52;78.04;98418.09;5050753;28;20086;-41
2021/03/22 04:34:45;;;;;;;15.10;8.35;;;;;;;3.24;78.18;98417.25;5050901;28;20504;-40
2021/03/22 04:37:11;;;;;;;13.32;7.63;;;;;;;3.26;79.30;98420.50;5040416;28;20401;-41
2021/03/22 04:39:36;;;;;;;10.43;6.32;;;;;;;3.17;77.72;98424.25;5031101;28;20022;-41
2021/03/22 04:42:02;;;;;;;14.10;7.70;;;;;;;2.89;78.90;98409.19;5030800;28;20145;-41
2021/03/22 04:44:28;;;;;;;13.05;7.40;;;;;;;2.89;79.41;98417.09;5030912;28;20029;-41
2021/03/22 04:46:53;;;;;;;17.13;8.48;;;;;;;2.95;78.78;98408.44;5030690;28;20025;-41
2021/03/22 04:49:19;;;;;;;30.02;15.45;;;;;;;2.93;78.91;98411.28;5035831;28;20488;-40
2021/03/22 04:51:44;;;;;;;24.50;11.18;;;;;;;2.91;79.08;98415.09;5030912;28;20032;-40
2021/03/22 04:54:09;;;;;;;18.00;9.82;;;;;;;2.86;79.07;98412.22;5030782;28;20065;-39
2021/03/22 04:56:35;;;;;;;19.55;10.13;;;;;;;2.87;79.78;98411.19;5030518;28;20021;-41
2021/03/22 04:59:01;;;;;;;19.60;9.82;;;;;;;2.95;79.43;98411.06;5030774;28;20037;-39
2021/03/22 05:01:27;;;;;;;16.48;9.05;;;;;;;3.75;76.14;98424.09;5030460;28;20120;-41
2021/03/22 05:03:52;;;;;;;16.45;9.10;;;;;;;3.39;77.48;98415.34;5030673;28;20037;-39
2021/03/22 05:06:18;;;;;;;15.60;9.02;;;;;;;3.19;78.34;98417.78;5030325;28;20111;-40
2021/03/22 05:08:43;;;;;;;16.30;8.73;;;;;;;3.00;77.89;98411.34;5030437;28;20025;-41
2021/03/22 05:11:09;;;;;;;18.55;9.75;;;;;;;2.91;79.40;98409.81;5030468;28;20029;-40
2021/03/22 05:13:34;;;;;;;17.77;9.43;;;;;;;2.83;78.74;98408.13;5030421;28;20086;-41
2021/03/22 05:16:00;;;;;;;19.77;10.95;;;;;;;2.86;78.85;98410.41;5030095;28;20033;-40
2021/03/22 05:18:27;;;;;;;20.05;10.88;;;;;;;2.93;79.29;98410.44;5030403;28;20033;-40
2021/03/22 05:21:02;;;;;;;22.08;11.60;;;;;;;2.83;79.89;98412.59;5030391;28;20409;-39
2021/03/22 05:23:28;;;;;;;22.00;11.93;;;;;;;2.80;78.25;98416.41;5030409;28;20090;-39
2021/03/22 05:25:54;;;;;;;21.83;11.90;;;;;;;2.86;79.62;98407.78;5030230;28;20029;-39
2021/03/22 05:28:21;;;;;;;24.63;12.48;;;;;;;2.77;79.15;98405.44;5030153;28;20037;-40
2021/03/22 05:30:46;;;;;;;22.08;12.35;;;;;;;2.65;80.04;98408.56;5030246;28;20465;-40
2021/03/22 05:33:13;;;;;;;23.38;11.95;;;;;;;2.81;78.19;98404.88;5030604;28;20040;-39
2021/03/22 05:35:39;;;;;;;37.65;18.88;;;;;;;2.58;80.05;98406.84;5030308;28;20021;-39
2021/03/22 05:38:05;;;;;;;42.75;20.50;;;;;;;2.63;80.47;98413.19;5029952;28;20103;-39
2021/03/22 05:40:51;;;;;;;41.42;19.50;;;;;;;2.65;79.38;98411.19;5030039;28;20463;-39
2021/03/22 05:43:26;;;;;;;33.83;17.92;;;;;;;2.55;79.66;98400.13;5028945;28;20041;-40
2021/03/22 05:46:10;;;;;;;42.88;22.52;;;;;;;3.30;79.63;98409.41;5028463;28;20417;-40
2021/03/22 05:49:13;;;;;;;29.77;15.88;;;;;;;4.29;75.32;98415.53;5031616;28;20099;-40
2021/03/22 05:51:47;;;;;;;25.80;13.95;;;;;;;4.54;73.02;98409.78;5033708;28;20028;-41
2021/03/22 05:54:31;;;;;;;27.02;14.55;;;;;;;4.71;72.08;98408.41;5033844;28;20171;-42
2021/03/22 05:56:59;;;;;;;27.20;13.98;;;;;;;4.97;71.83;98410.31;5033684;28;20022;-42
2021/03/22 05:59:33;;;;;;;22.02;11.75;;;;;;;4.58;72.81;98411.81;5036310;28;20036;-42
2021/03/22 06:02:31;;;;;;;24.25;13.20;;;;;;;5.15;70.16;98403.66;5038353;28;20072;-42
2021/03/22 06:04:58;;;;;;;21.35;11.52;;;;;;;5.29;69.95;98406.09;5035408;28;20053;-51
2021/03/22 06:07:24;;;;;;;16.23;9.30;;;;;;;5.49;69.23;98403.44;5029855;28;20057;-43
2021/03/22 06:09:57;;;;;;;17.98;10.82;;;;;;;5.54;69.63;98405.50;5040968;28;20116;-43
2021/03/22 06:12:34;;;;;;;20.20;12.00;;;;;;;5.77;71.97;98404.25;5043265;28;20098;-55
2021/03/22 06:15:26;;;;;;;19.83;11.52;;;;;;;6.10;68.73;98396.31;5041955;28;20030;-44
2021/03/22 06:17:59;;;;;;;18.70;10.57;;;;;;;6.17;69.55;98402.38;5027972;28;20132;-54
2021/03/22 06:20:29;;;;;;;18.98;11.15;;;;;;;6.16;67.73;98398.09;5043600;28;20460;-42
2021/03/22 06:23:19;;;;;;;56.08;29.10;;;;;;;6.10;69.87;98404.22;5040172;28;20029;-42
2021/03/22 06:25:44;;;;;;;29.48;17.35;;;;;;;5.88;69.89;98388.59;5031008;28;20020;-43
2021/03/22 06:28:20;;;;;;;21.33;12.48;;;;;;;6.14;69.69;98392.22;5046318;28;20021;-54
2021/03/22 06:31:03;;;;;;;17.30;10.40;;;;;;;6.44;69.09;98386.44;5044054;28;20052;-55
2021/03/22 06:33:39;;;;;;;18.20;11.15;;;;;;;6.45;65.77;98388.06;5042973;28;20124;-43
2021/03/22 06:36:06;;;;;;;16.55;10.40;;;;;;;6.77;64.94;98396.03;5043575;28;20347;-56
2021/03/22 06:38:31;;;;;;;16.17;8.48;;;;;;;6.78;64.40;98393.19;5041600;28;20030;-55
2021/03/22 06:40:57;;;;;;;13.13;7.72;;;;;;;6.89;63.28;98391.69;5043671;28;20017;-56
2021/03/22 06:43:24;;;;;;;11.05;7.25;;;;;;;7.12;64.18;98391.16;5042312;28;20143;-56
2021/03/22 06:46:06;;;;;;;12.60;7.97;;;;;;;6.90;62.24;98392.53;5039302;28;20111;-43
2021/03/22 06:48:35;;;;;;;13.77;8.07;;;;;;;7.11;63.62;98394.81;5043797;28;20061;-44
2021/03/22 06:51:04;;;;;;;10.27;7.07;;;;;;;7.09;63.47;98393.44;5044282;28;20480;-57
2021/03/22 06:53:37;;;;;;;13.25;7.65;;;;;;;7.16;63.42;98399.47;5042266;28;20025;-58
2021/03/22 06:56:22;;;;;;;10.57;6.50;;;;;;;7.14;63.05;98396.22;5033455;28;20417;-57
2021/03/22 06:58:49;;;;;;;10.80;6.78;;;;;;;7.53;63.42;98397.75;5032678;28;20473;-47
2021/03/22 07:01:26;;;;;;;10.63;6.70;;;;;;;7.52;63.01;98393.50;5040251;28;20033;-44
2021/03/22 07:03:52;;;;;;;13.80;6.40;;;;;;;7.49;61.15;98401.06;5051610;28;20108;-46
2021/03/22 07:06:23;;;;;;;15.75;7.97;;;;;;;7.57;60.77;98392.84;5047670;28;20466;-48
2021/03/22 07:08:49;;;;;;;13.48;8.35;;;;;;;7.24;61.59;98392.09;5041298;28;20025;-50
2021/03/22 07:11:22;;;;;;;12.63;7.35;;;;;;;6.98;62.91;98384.31;5038742;28;20088;-47
2021/03/22 07:13:59;;;;;;;13.45;7.15;;;;;;;6.94;62.95;98383.94;5037497;28;20487;-58
2021/03/22 07:16:31;;;;;;;12.02;7.38;;;;;;;6.82;64.33;98378.53;5031870;28;20029;-56
2021/03/22 07:19:03;;;;;;;12.80;8.07;;;;;;;6.77;64.36;98382.81;5031671;28;20526;-43
2021/03/22 07:21:29;;;;;;;13.73;7.60;;;;;;;6.66;64.18;98371.06;5032384;28;20113;-43
2021/03/22 07:24:10;;;;;;;12.40;7.68;;;;;;;6.83;64.64;98371.38;5030673;28;20420;-41
2021/03/22 07:26:42;;;;;;;13.65;7.93;;;;;;;6.88;63.62;98376.88;5038733;28;20029;-40
2021/03/22 07:29:22;;;;;;;14.18;9.48;;;;;;;6.68;65.52;98384.88;5049819;28;20453;-40
2021/03/22 07:32:16;;;;;;;15.13;9.27;;;;;;;6.82;64.90;98386.44;5050822;28;20075;-41
2021/03/22 07:34:45;;;;;;;14.20;8.52;;;;;;;6.86;64.78;98392.13;5049132;28;20473;-40
2021/03/22 07:37:35;;;;;;;18.25;10.73;;;;;;;6.84;65.47;98387.06;5049657;28;20103;-51
2021/03/22 07:40:21;;;;;;;41.28;22.38;;;;;;;7.14;64.96;98390.94;5050752;28;20128;-39
2021/03/22 07:43:15;;;;;;;17.02;9.18;;;;;;;7.15;64.88;98390.72;5049510;28;20027;-52
2021/03/22 07:45:58;;;;;;;14.88;8.93;;;;;;;7.24;65.01;98380.69;5050442;28;20039;-39
2021/03/22 07:48:42;;;;;;;23.10;13.07;;;;;;;7.36;63.97;98386.09;5032715;28;20037;-39
2021/03/22 07:51:49;;;;;;;17.67;10.43;;;;;;;7.22;64.21;98378.25;5050225;28;20386;-50
2021/03/22 07:54:14;;;;;;;15.60;9.20;;;;;;;7.19;63.74;98383.16;5047227;28;20103;-50
2021/03/22 07:56:46;;;;;;;16.70;9.30;;;;;;;7.07;64.40;98382.25;5050357;28;20029;-53
2021/03/22 07:59:44;;;;;;;16.83;9.80;;;;;;;7.07;64.71;98385.69;5048642;28;20028;-49
2021/03/22 08:02:32;;;;;;;17.67;10.18;;;;;;;5.46;69.35;98387.22;5030791;28;20045;-53
2021/03/22 08:04:58;;;;;;;15.50;9.55;;;;;;;4.60;72.99;98380.00;5049809;28;20056;-39
2021/03/22 08:07:49;;;;;;;75.13;36.45;;;;;;;3.95;73.62;98382.94;5050235;28;20078;-40
2021/03/22 08:10:31;;;;;;;18.23;10.25;;;;;;;3.55;76.32;98381.88;5049485;28;20081;-40
2021/03/22 08:13:18;;;;;;;14.60;8.40;;;;;;;3.59;76.45;98397.09;5048770;28;20025;-51
2021/03/22 08:16:02;;;;;;;18.08;9.25;;;;;;;3.72;76.42;98384.03;5048718;28;20021;-53
2021/03/22 08:18:39;;;;;;;17.92;9.55;;;;;;;3.72;75.95;98380.59;5041637;28;20108;-50
2021/03/22 08:21:34;;;;;;;17.33;9.20;;;;;;;3.78;75.84;98379.81;5038878;28;20021;-39
2021/03/22 08:24:10;;;;;;;17.15;9.68;;;;;;;3.69;75.95;98371.25;5033623;28;20033;-39
2021/03/22 08:26:58;;;;;;;17.38;10.23;;;;;;;3.43;78.24;98360.56;5020060;28;20021;-39
2021/03/22 08:29:30;;;;;;;21.27;11.20;;;;;;;3.47;78.25;98343.38;5037164;28;20037;-40
2021/03/22 08:32:17;;;;;;;23.55;12.27;;;;;;;3.61;77.70;98354.81;5028774;28;20083;-49
2021/03/22 08:34:49;;;;;;;29.55;15.43;;;;;;;3.64;76.88;98352.59;5024341;28;20018;-50
2021/03/22 08:37:22;;;;;;;29.20;14.95;;;;;;;3.81;76.71;98347.00;5016785;28;20017;-40
2021/03/22 08:39:59;;;;;;;16.85;9.75;;;;;;;3.71;77.35;98348.19;5011750;28;20021;-50
2021/03/22 08:42:30;;;;;;;20.67;10.70;;;;;;;3.59;77.95;98352.34;5028137;28;20139;-54
2021/03/22 08:45:18;;;;;;;19.45;11.48;;;;;;;3.66;77.32;98357.69;5027916;28;20025;-52
2021/03/22 08:48:04;;;;;;;18.38;9.93;;;;;;;3.94;77.75;98360.28;5028091;28;20029;-49
2021/03/22 08:50:33;;;;;;;20.33;10.88;;;;;;;4.02;78.30;98352.22;5029267;28;20348;-39
2021/03/22 08:52:59;;;;;;;16.25;8.95;;;;;;;4.16;76.21;98363.63;5029246;28;20131;-51
2021/03/22 08:55:50;;;;;;;15.65;8.73;;;;;;;4.15;76.46;98359.38;5029177;28;20032;-39
2021/03/22 08:58:38;;;;;;;13.75;7.68;;;;;;;3.89;77.54;98362.66;5028242;28;20104;-40
2021/03/22 09:01:19;;;;;;;14.35;7.88;;;;;;;3.95;76.96;98361.09;5027980;28;20413;-40
2021/03/22 09:03:44;;;;;;;14.38;7.45;;;;;;;3.91;77.45;98374.63;5029270;28;20491;-39
2021/03/22 09:06:18;;;;;;;14.10;7.68;;;;;;;3.93;77.54;98363.91;5027562;28;20054;-38
2021/03/22 09:08:50;;;;;;;15.00;7.55;;;;;;;3.66;77.56;98336.63;5029102;28;20026;-52
2021/03/22 09:11:15;;;;;;;12.68;7.70;;;;;;;4.18;78.16;98351.06;5029139;28;20036;-52
2021/03/22 09:14:09;;;;;;;13.93;7.47;;;;;;;4.12;77.58;98351.84;5029026;28;20405;-51
2021/03/22 09:16:51;;;;;;;24.13;12.75;;;;;;;4.28;76.48;98346.25;5027777;28;20096;-40
2021/03/22 09:19:17;;;;;;;15.57;8.32;;;;;;;4.33;77.88;98347.47;5027749;28;20029;-39
2021/03/22 09:22:10;;;;;;;12.02;7.13;;;;;;;4.29;76.56;98339.97;5030474;28;20555;-39
2021/03/22 09:27:19;;;;;;;15.68;7.80;;;;;;;4.21;76.74;98331.44;5032814;28;20531;-52
2021/03/22 09:29:48;;;;;;;15.38;8.75;;;;;;;4.29;76.52;98323.38;5033070;28;20029;-39
2021/03/22 09:35:13;;;;;;;21.17;10.68;;;;;;;4.36;77.35;98333.91;5033055;28;20068;-39
2021/03/22 09:37:53;;;;;;;23.45;12.10;;;;;;;4.45;76.70;98340.63;5046848;28;20035;-52
2021/03/22 09:40:19;;;;;;;;;;;;;;;4.35;76.60;98335.72;5052072;28;20032;-49
2021/03/22 09:43:04;;;;;;;25.55;13.48;;;;;;;4.25;77.31;98336.09;5052509;28;19909;-52
2021/03/22 09:45:49;;;;;;;26.50;13.77;;;;;;;4.43;77.81;98340.81;5051245;28;20196;-53
2021/03/22 09:48:18;;;;;;;27.13;13.52;;;;;;;4.61;76.73;98306.03;5052494;28;20119;-51
2021/03/22 09:50:48;;;;;;;30.13;15.25;;;;;;;4.74;76.59;98309.69;5052544;28;20032;-39
2021/03/22 09:53:17;;;;;;;;;;;;;;;4.94;76.50;98321.06;5035385;28;20544;-39
2021/03/22 09:56:02;;;;;;;26.58;14.18;;;;;;;5.03;76.35;98324.31;5053118;28;19959;-50
2021/03/22 09:58:45;;;;;;;27.75;13.15;;;;;;;4.80;76.29;98314.16;5051857;28;20037;-39
2021/03/22 10:01:29;;;;;;;20.58;10.50;;;;;;;4.84;76.54;98329.38;5050305;28;20170;-49
2021/03/22 10:04:14;;;;;;;24.42;11.48;;;;;;;5.20;76.77;98327.38;5052118;28;20028;-39
2021/03/22 10:07:17;;;;;;;20.63;11.82;;;;;;;5.33;76.14;98308.06;5052079;28;20457;-51
2021/03/22 10:10:02;;;;;;;19.85;10.80;;;;;;;5.51;74.98;98312.72;5052850;28;20434;-40
2021/03/22 10:12:31;;;;;;;15.45;8.73;;;;;;;5.53;73.86;98323.88;5053028;28;20036;-52
2021/03/22 10:15:11;;;;;;;19.45;11.10;;;;;;;5.47;74.61;98328.16;5040967;28;20436;-38
2021/03/22 10:18:02;;;;;;;18.75;10.63;;;;;;;5.24;74.85;98312.75;5033151;28;20075;-40
2021/03/22 10:20:40;;;;;;;18.08;9.95;;;;;;;5.31;75.12;98325.94;5038759;28;20124;-39
2021/03/22 10:23:28;;;;;;;14.25;8.60;;;;;;;5.39;75.24;98323.91;5052292;28;20093;-40
2021/03/22 10:26:21;;;;;;;12.48;7.85;;;;;;;5.66;73.64;98329.16;5052607;28;20502;-50
2021/03/22 10:28:46;;;;;;;12.88;8.02;;;;;;;5.34;74.74;98341.38;5031226;28;20508;-52
2021/03/22 10:31:23;;;;;;;12.55;7.47;;;;;;;5.43;74.24;98343.59;5052835;28;20020;-48
2021/03/22 10:33:52;;;;;;;14.30;8.00;;;;;;;5.37;74.49;98346.22;5051690;28;20025;-51
2021/03/22 10:36:45;;;;;;;13.60;7.63;;;;;;;5.40;73.92;98336.06;5052278;28;20096;-39
2021/03/22 10:39:29;;;;;;;12.65;7.65;;;;;;;5.29;74.60;98331.41;5052104;28;20043;-39
2021/03/22 10:41:54;;;;;;;14.77;8.75;;;;;;;5.29;75.79;98332.22;5035806;28;20025;-39
2021/03/22 10:44:25;;;;;;;14.05;8.90;;;;;;;5.68;74.28;98327.13;5052259;28;20036;-51
2021/03/22 10:47:11;;;;;;;15.93;9.23;;;;;;;5.68;73.63;98332.38;5050723;28;20108;-39
2021/03/22 10:49:36;;;;;;;14.88;9.30;;;;;;;5.63;74.31;98316.34;5051901;28;20069;-39
2021/03/22 10:52:04;;;;;;;16.70;9.75;;;;;;;5.60;74.06;98312.31;5067832;28;20349;-39
2021/03/22 10:54:46;;;;;;;15.07;9.45;;;;;;;5.88;73.18;98316.47;5070775;28;20058;-39
2021/03/22 10:57:19;;;;;;;19.48;10.70;;;;;;;5.72;73.55;98319.59;5071975;28;20023;-39
2021/03/22 10:59:46;;;;;;;17.33;9.98;;;;;;;5.56;74.49;98305.81;5071959;28;20468;-39
2021/03/22 11:02:39;;;;;;;15.52;9.18;;;;;;;5.78;73.57;98302.91;5054160;28;20116;-39
2021/03/22 11:05:13;;;;;;;15.88;9.10;;;;;;;5.99;73.39;98291.31;5056326;28;20048;-40
2021/03/22 11:07:38;;;;;;;13.60;8.57;;;;;;;5.93;73.43;98300.84;5052922;28;20058;-39
2021/03/22 11:10:14;;;;;;;13.90;8.73;;;;;;;6.10;74.03;98295.13;5052019;28;20025;-39
2021/03/22 11:12:44;;;;;;;14.60;9.48;;;;;;;6.14;73.31;98288.41;5050961;28;20025;-39
2021/03/22 11:15:21;;;;;;;14.05;8.48;;;;;;;6.09;74.16;98289.00;5050877;28;20522;-50
2021/03/22 11:17:47;;;;;;;12.95;7.70;;;;;;;6.24;72.33;98279.03;5050454;28;20036;-49
2021/03/22 11:20:15;;;;;;;13.63;8.00;;;;;;;6.44;71.40;98283.38;5051015;28;20060;-50
2021/03/22 11:22:41;;;;;;;14.80;8.60;;;;;;;6.59;71.43;98278.59;5050946;28;20412;-39
2021/03/22 11:25:26;;;;;;;12.32;7.47;;;;;;;6.93;70.56;98288.94;5051820;28;20059;-39
2021/03/22 11:27:57;;;;;;;13.55;8.10;;;;;;;6.86;71.55;98270.50;5051730;28;20064;-39
2021/03/22 11:30:48;;;;;;;15.45;9.43;;;;;;;6.79;71.95;98277.66;5051060;28;20437;-39
2021/03/22 11:33:36;;;;;;;14.15;8.98;;;;;;;6.74;70.77;98275.66;5040455;28;20033;-40
2021/03/22 11:36:04;;;;;;;16.30;10.10;;;;;;;6.85;70.64;98280.25;5041139;28;20018;-39
2021/03/22 11:38:33;;;;;;;19.05;10.93;;;;;;;6.85;71.15;98290.00;5040194;28;20033;-51
2021/03/22 11:40:58;;;;;;;16.65;9.75;;;;;;;7.07;70.80;98287.00;5046884;28;20039;-41
2021/03/22 11:43:32;;;;;;;13.15;7.93;;;;;;;6.56;70.62;98288.78;5051770;28;20028;-52
2021/03/22 11:46:15;;;;;;;10.57;6.88;;;;;;;6.68;70.06;98280.97;5048931;28;20021;-50
2021/03/22 11:48:40;;;;;;;11.35;7.07;;;;;;;6.39;71.52;98284.00;5051386;28;20230;-51
2021/03/22 11:51:10;;;;;;;9.15;6.03;;;;;;;6.48;70.37;98279.28;5050669;28;20508;-54
2021/03/22 11:54:07;;;;;;;10.88;6.05;;;;;;;6.62;70.46;98275.53;5049606;28;20555;-52
2021/03/22 11:56:37;;;;;;;10.65;6.53;;;;;;;6.66;69.59;98278.53;5050632;28;20098;-49
2021/03/22 11:59:21;;;;;;;;;;;;;;;6.83;70.26;98279.66;5050236;28;20024;-50
2021/03/22 12:02:05;;;;;;;12.23;7.53;;;;;;;6.69;70.17;98272.03;5049675;28;19919;-52
2021/03/22 12:04:31;;;;;;;12.82;8.18;;;;;;;6.77;70.30;98275.22;5050465;28;20110;-51
2021/03/22 12:07:14;;;;;;;13.77;8.40;;;;;;;6.94;70.20;98277.34;5048704;28;20025;-50
2021/03/22 12:09:41;;;;;;;12.43;8.13;;;;;;;7.18;69.63;98281.03;5050921;28;20029;-53